Time;durP1;ratioP1;P1;durP2;ratioP2;P2;SDS_P1;SDS_P2;PMS_P1;PMS_P2;Temp;Humidity;BMP_temperature;BMP_pressure;BME280_temperature;BME280_humidity;BME280_pressure;Samples;Min_cycle;Max_cycle;Signal;HPM_P1;HPM_P2
2021/01/03 00:00:18;;;;;;;5.37;2.50;;;0.40;99.90;;;;;;4995213;28;20643;-68
2021/01/03 00:02:45;;;;;;;5.07;2.57;;;0.40;99.90;;;;;;4991941;28;20657;-67
2021/01/03 00:05:14;;;;;;;3.10;2.27;;;0.40;99.90;;;;;;4976343;28;20245;-68
2021/01/03 00:07:41;;;;;;;5.27;2.50;;;0.40;99.90;;;;;;4975907;28;20238;-67
2021/01/03 00:10:09;;;;;;;4.30;2.53;;;0.40;99.90;;;;;;4983978;28;20676;-67
2021/01/03 00:12:35;;;;;;;3.80;2.40;;;0.40;99.90;;;;;;4995662;28;20229;-68
2021/01/03 00:15:03;;;;;;;3.10;2.47;;;0.40;99.90;;;;;;4995439;28;20236;-68
2021/01/03 00:17:30;;;;;;;4.27;2.47;;;0.40;99.90;;;;;;4991503;28;20278;-68
2021/01/03 00:19:57;;;;;;;3.47;1.90;;;0.30;99.90;;;;;;4982440;28;20221;-68
2021/01/03 00:22:23;;;;;;;3.77;2.40;;;0.30;99.90;;;;;;4977392;28;20225;-67
2021/01/03 00:24:50;;;;;;;3.17;2.50;;;0.40;99.90;;;;;;4978132;28;20225;-69
2021/01/03 00:27:16;;;;;;;3.07;1.87;;;0.30;99.90;;;;;;4975738;28;20313;-68
2021/01/03 00:29:43;;;;;;;2.13;1.23;;;0.30;99.90;;;;;;4992726;28;20268;-70
2021/01/03 00:32:09;;;;;;;3.93;2.27;;;0.30;99.90;;;;;;4981031;28;20319;-67
2021/01/03 00:34:36;;;;;;;4.00;2.60;;;0.30;99.90;;;;;;4975870;28;20198;-67
2021/01/03 00:37:03;;;;;;;3.67;2.60;;;0.30;99.90;;;;;;4975269;28;20213;-68
2021/01/03 00:39:29;;;;;;;4.43;2.80;;;0.30;99.90;;;;;;4993117;28;20328;-68
2021/01/03 00:41:57;;;;;;;4.33;2.63;;;0.30;99.90;;;;;;4981015;28;20216;-68
2021/01/03 00:44:23;;;;;;;2.47;2.10;;;0.30;99.90;;;;;;4975289;28;20237;-67
2021/01/03 00:46:50;;;;;;;4.20;2.57;;;0.30;99.90;;;;;;4975190;28;20250;-69
2021/01/03 00:49:16;;;;;;;4.83;2.80;;;0.30;99.90;;;;;;4990456;28;20194;-69
2021/01/03 00:51:43;;;;;;;4.40;2.73;;;0.30;99.90;;;;;;4980344;28;20198;-67
2021/01/03 00:54:11;;;;;;;5.37;2.77;;;0.30;99.90;;;;;;4987988;28;20313;-68
2021/01/03 00:56:37;;;;;;;4.40;2.50;;;0.30;99.90;;;;;;4994867;28;20375;-68
2021/01/03 00:59:04;;;;;;;6.07;2.70;;;0.30;99.90;;;;;;4989785;28;20212;-68
2021/01/03 01:01:30;;;;;;;4.93;2.47;;;0.30;99.90;;;;;;4993200;28;20221;-67
2021/01/03 01:03:57;;;;;;;3.20;2.20;;;0.40;99.90;;;;;;4994384;28;20201;-67
2021/01/03 01:06:23;;;;;;;3.53;2.00;;;0.50;99.90;;;;;;4993479;28;20349;-69
2021/01/03 01:08:51;;;;;;;4.40;2.40;;;0.50;99.90;;;;;;4994351;28;20213;-66
2021/01/03 01:11:18;;;;;;;2.53;1.90;;;0.50;99.90;;;;;;4993807;28;20656;-68
2021/01/03 01:13:45;;;;;;;2.27;1.50;;;0.40;99.90;;;;;;4994759;28;20201;-68
2021/01/03 01:16:11;;;;;;;2.60;1.70;;;0.40;99.90;;;;;;4992378;28;20205;-66
2021/01/03 01:18:37;;;;;;;1.73;1.47;;;0.50;99.90;;;;;;4994691;28;20221;-69
2021/01/03 01:21:05;;;;;;;3.00;1.80;;;0.50;99.90;;;;;;4982913;28;20226;-67
2021/01/03 01:23:31;;;;;;;2.30;1.70;;;0.50;99.90;;;;;;4974733;28;20308;-67
2021/01/03 01:25:59;;;;;;;3.40;1.70;;;0.50;99.90;;;;;;4974412;28;20272;-68
2021/01/03 01:28:25;;;;;;;1.40;1.30;;;0.50;99.90;;;;;;4974316;28;20245;-67
2021/01/03 01:30:51;;;;;;;3.80;1.97;;;0.40;99.90;;;;;;4986011;28;20197;-66
2021/01/03 01:33:19;;;;;;;3.03;1.70;;;0.40;99.90;;;;;;4993377;28;20233;-67
2021/01/03 01:35:45;;;;;;;2.70;1.70;;;0.40;99.90;;;;;;4993318;28;20205;-70
2021/01/03 01:38:12;;;;;;;2.97;1.97;;;0.40;99.90;;;;;;4993047;28;20228;-68
2021/01/03 01:40:40;;;;;;;3.10;1.80;;;0.40;99.90;;;;;;4991787;28;20236;-68
2021/01/03 01:43:11;;;;;;;2.83;1.83;;;0.30;99.90;;;;;;4992457;28;20704;-67
2021/01/03 01:45:40;;;;;;;2.00;1.80;;;0.40;99.90;;;;;;4993688;28;20217;-67
2021/01/03 01:48:11;;;;;;;2.70;1.73;;;0.40;99.90;;;;;;4993557;28;20224;-66
2021/01/03 01:50:42;;;;;;;3.07;2.10;;;0.40;99.90;;;;;;4992196;28;20568;-67
2021/01/03 01:53:15;;;;;;;2.37;2.00;;;0.40;99.90;;;;;;4974060;28;20218;-66
2021/01/03 01:55:49;;;;;;;2.83;2.10;;;0.40;99.90;;;;;;4974590;28;20616;-67
2021/01/03 01:58:24;;;;;;;3.00;2.00;;;0.50;99.90;;;;;;4973573;28;20233;-66
2021/01/03 02:00:56;;;;;;;2.63;1.60;;;0.50;99.90;;;;;;4984400;28;20239;-67
2021/01/03 02:03:30;;;;;;;2.73;1.80;;;0.50;99.90;;;;;;4987037;28;20183;-67
2021/01/03 02:06:03;;;;;;;2.90;1.53;;;0.50;99.90;;;;;;4976950;28;20225;-67
2021/01/03 02:08:35;;;;;;;1.60;1.47;;;0.60;99.90;;;;;;4992571;28;20313;-67
2021/01/03 02:11:03;;;;;;;3.03;1.50;;;0.60;99.90;;;;;;4989965;28;20197;-68
2021/01/03 02:13:33;;;;;;;3.97;1.90;;;0.60;99.90;;;;;;4993261;28;20315;-66
2021/01/03 02:16:06;;;;;;;2.13;1.60;;;0.60;99.90;;;;;;4992514;28;20248;-66
2021/01/03 02:18:32;;;;;;;1.93;1.63;;;0.60;99.90;;;;;;4972794;28;20648;-68
2021/01/03 02:21:17;;;;;;;3.87;2.00;;;0.60;99.90;;;;;;4984046;28;20229;-68
2021/01/03 02:23:53;;;;;;;1.80;1.43;;;0.60;99.90;;;;;;4992162;28;20236;-67
2021/01/03 02:26:23;;;;;;;2.47;1.63;;;0.60;99.90;;;;;;4992483;28;20245;-67
2021/01/03 02:28:51;;;;;;;1.57;1.47;;;0.60;99.90;;;;;;4992542;28;20606;-68
2021/01/03 02:31:23;;;;;;;2.87;1.80;;;0.60;99.90;;;;;;4991818;28;20204;-66
2021/01/03 02:33:51;;;;;;;2.53;1.80;;;0.60;99.90;;;;;;4992863;28;20221;-68
2021/01/03 02:36:24;;;;;;;1.80;1.37;;;0.70;99.90;;;;;;4992271;28;20671;-67
2021/01/03 02:38:59;;;;;;;1.67;1.27;;;0.70;99.90;;;;;;4992423;28;20668;-67
2021/01/03 02:41:26;;;;;;;2.77;1.83;;;0.70;99.90;;;;;;4991932;28;20343;-67
2021/01/03 02:43:53;;;;;;;3.23;1.30;;;0.60;99.90;;;;;;4992654;28;20616;-66
2021/01/03 02:46:19;;;;;;;1.93;1.20;;;0.60;99.90;;;;;;4991965;28;20304;-68
2021/01/03 02:48:46;;;;;;;2.33;1.80;;;0.60;99.90;;;;;;4981203;28;20244;-67
2021/01/03 02:51:12;;;;;;;2.27;1.50;;;0.60;99.90;;;;;;4973341;28;20364;-67
2021/01/03 02:53:39;;;;;;;1.70;1.33;;;0.60;99.90;;;;;;4973476;28;20271;-67
2021/01/03 02:56:06;;;;;;;1.80;1.37;;;0.60;99.90;;;;;;4974036;28;20285;-66
2021/01/03 02:58:33;;;;;;;3.63;1.70;;;0.60;99.90;;;;;;4980788;28;20186;-67
2021/01/03 03:00:59;;;;;;;1.50;1.30;;;0.60;99.90;;;;;;4991659;28;20221;-67
2021/01/03 03:03:27;;;;;;;1.50;1.40;;;0.60;99.90;;;;;;4992825;28;20566;-67
2021/01/03 03:05:53;;;;;;;1.50;1.40;;;0.60;99.90;;;;;;4991842;28;20636;-67
2021/01/03 03:08:20;;;;;;;1.63;1.30;;;0.60;99.90;;;;;;4990888;28;20217;-66
2021/01/03 03:10:46;;;;;;;1.90;1.50;;;0.70;99.90;;;;;;4975194;28;20259;-67
2021/01/03 03:13:13;;;;;;;1.93;1.30;;;0.70;99.90;;;;;;4991944;28;20290;-67
2021/01/03 03:15:40;;;;;;;1.30;1.20;;;0.70;99.90;;;;;;4984850;28;20190;-67
2021/01/03 03:18:08;;;;;;;1.73;1.50;;;0.70;99.90;;;;;;4988515;28;20236;-68
2021/01/03 03:20:36;;;;;;;1.97;1.47;;;0.70;99.90;;;;;;4992203;28;20285;-67
2021/01/03 03:23:02;;;;;;;3.17;1.53;;;0.70;99.90;;;;;;4991980;28;20201;-67
2021/01/03 03:25:29;;;;;;;3.53;1.60;;;0.80;99.90;;;;;;4991795;28;20321;-66
2021/01/03 03:27:55;;;;;;;2.13;1.33;;;0.70;99.90;;;;;;4992232;28;20210;-66
2021/01/03 03:30:23;;;;;;;1.07;1.00;;;0.80;99.90;;;;;;4993503;28;20303;-67
2021/01/03 03:32:53;;;;;;;1.23;1.13;;;0.80;99.90;;;;;;4996151;28;20233;-66
2021/01/03 03:35:23;;;;;;;1.23;1.13;;;0.80;99.90;;;;;;4995672;28;20208;-66
2021/01/03 03:37:50;;;;;;;1.73;1.50;;;0.80;99.90;;;;;;4995851;28;20193;-68
2021/01/03 03:40:17;;;;;;;2.47;1.33;;;0.80;99.90;;;;;;4995516;28;20189;-66
2021/01/03 03:42:43;;;;;;;1.50;1.40;;;0.80;99.90;;;;;;4995175;28;20651;-67
2021/01/03 03:45:12;;;;;;;2.30;1.50;;;0.80;99.90;;;;;;4994958;28;20238;-68
2021/01/03 03:47:38;;;;;;;1.50;1.30;;;0.80;99.90;;;;;;4995542;28;20245;-67
2021/01/03 03:50:11;;;;;;;2.23;1.60;;;0.80;99.90;;;;;;4995006;28;20269;-67
2021/01/03 03:52:38;;;;;;;2.00;1.57;;;0.70;99.90;;;;;;4995051;28;20313;-67
2021/01/03 03:55:06;;;;;;;2.07;1.67;;;0.70;99.90;;;;;;4994273;28;20678;-66
2021/01/03 03:57:32;;;;;;;1.23;1.13;;;0.70;99.90;;;;;;4995051;28;20244;-67
2021/01/03 03:59:59;;;;;;;1.23;0.93;;;0.70;99.90;;;;;;4994856;28;20651;-67
2021/01/03 04:02:25;;;;;;;3.10;1.77;;;0.70;99.90;;;;;;4994918;28;20233;-66
2021/01/03 04:04:52;;;;;;;2.20;1.93;;;0.70;99.90;;;;;;4995131;28;20237;-67
2021/01/03 04:07:19;;;;;;;1.60;1.50;;;0.70;99.90;;;;;;4994422;28;20256;-67
2021/01/03 04:09:45;;;;;;;2.37;1.57;;;0.70;99.90;;;;;;4992145;28;20218;-67
2021/01/03 04:12:12;;;;;;;2.20;1.80;;;0.70;99.90;;;;;;4984161;28;20234;-67
2021/01/03 04:14:38;;;;;;;4.30;2.00;;;0.70;99.90;;;;;;4989963;28;20250;-66
2021/01/03 04:17:05;;;;;;;2.90;2.00;;;0.70;99.90;;;;;;4994713;28;20665;-68
2021/01/03 04:19:31;;;;;;;2.97;1.90;;;0.70;99.90;;;;;;4990053;28;20236;-68
2021/01/03 04:21:59;;;;;;;2.47;2.00;;;0.70;99.90;;;;;;4994911;28;20232;-66
2021/01/03 04:24:27;;;;;;;1.33;1.23;;;0.80;99.90;;;;;;4994658;28;20264;-65
2021/01/03 04:26:57;;;;;;;2.17;1.80;;;0.70;99.90;;;;;;4994391;28;20225;-67
2021/01/03 04:29:24;;;;;;;1.90;1.67;;;0.70;99.90;;;;;;4995036;28;20269;-67
2021/01/03 04:31:54;;;;;;;2.10;1.60;;;0.80;99.90;;;;;;4994714;28;20194;-66
2021/01/03 04:34:21;;;;;;;2.13;1.43;;;0.80;99.90;;;;;;4994886;28;20194;-67
2021/01/03 04:36:49;;;;;;;2.40;1.67;;;0.80;99.90;;;;;;4994414;28;20206;-68
2021/01/03 04:39:16;;;;;;;1.70;1.50;;;0.80;99.90;;;;;;4993110;28;20631;-67
2021/01/03 04:41:44;;;;;;;2.47;1.80;;;0.80;99.90;;;;;;4975647;28;20221;-66
2021/01/03 04:44:18;;;;;;;3.17;1.80;;;0.80;99.90;;;;;;4975194;28;20245;-65
2021/01/03 04:46:44;;;;;;;1.60;1.50;;;0.80;99.90;;;;;;4983124;28;20641;-67
2021/01/03 04:49:20;;;;;;;1.83;1.70;;;0.80;99.90;;;;;;4980883;28;20216;-66
2021/01/03 04:52:26;;;;;;;2.80;1.77;;;0.80;99.90;;;;;;4994392;28;20247;-67
2021/01/03 04:55:09;;;;;;;3.93;1.43;;;0.80;99.90;;;;;;4994029;28;20322;-66
2021/01/03 04:57:49;;;;;;;2.20;1.73;;;0.80;99.90;;;;;;4994496;28;20636;-67
2021/01/03 05:00:18;;;;;;;1.97;1.50;;;0.90;99.90;;;;;;4994083;28;20252;-66
2021/01/03 05:03:15;;;;;;;2.23;1.60;;;0.80;99.90;;;;;;4994030;28;20266;-65
2021/01/03 05:05:46;;;;;;;2.33;1.70;;;0.80;99.90;;;;;;4994060;28;20218;-67
2021/01/03 05:08:32;;;;;;;1.60;1.50;;;0.80;99.90;;;;;;4974561;28;20234;-67
2021/01/03 05:11:04;;;;;;;2.77;1.77;;;0.80;99.90;;;;;;4974385;28;20657;-66
2021/01/03 05:13:44;;;;;;;2.80;1.23;;;0.80;99.90;;;;;;4976827;28;20281;-67
2021/01/03 05:16:12;;;;;;;1.83;1.40;;;0.80;99.90;;;;;;4994008;28;20185;-68
2021/01/03 05:18:39;;;;;;;2.70;1.50;;;0.80;99.90;;;;;;4983567;28;20288;-67
2021/01/03 05:21:06;;;;;;;4.00;1.77;;;0.90;99.90;;;;;;4993403;28;20281;-66
2021/01/03 05:23:35;;;;;;;2.20;1.70;;;0.80;99.90;;;;;;4993870;28;20205;-66
2021/01/03 05:26:04;;;;;;;2.00;1.50;;;0.80;99.90;;;;;;4993481;28;20240;-67
2021/01/03 05:28:33;;;;;;;2.27;1.63;;;0.90;99.90;;;;;;4993878;28;20190;-66
2021/01/03 05:31:13;;;;;;;2.20;1.57;;;0.90;99.90;;;;;;4993353;28;20229;-67
2021/01/03 05:33:53;;;;;;;1.67;1.37;;;0.90;99.90;;;;;;4993606;28;20221;-66
2021/01/03 05:36:29;;;;;;;1.90;1.53;;;1.00;99.90;;;;;;4983168;28;20191;-66
2021/01/03 05:38:56;;;;;;;1.60;1.50;;;0.90;99.90;;;;;;4976439;28;20666;-67
2021/01/03 05:41:34;;;;;;;4.37;1.70;;;0.90;99.90;;;;;;4985224;28;20226;-67
2021/01/03 05:44:10;;;;;;;2.67;1.70;;;0.90;99.90;;;;;;4974156;28;20335;-67
2021/01/03 05:46:43;;;;;;;2.30;1.80;;;0.80;99.90;;;;;;4973811;28;20242;-67
2021/01/03 05:49:13;;;;;;;3.00;1.90;;;0.90;99.90;;;;;;4977537;28;20269;-67
2021/01/03 05:51:44;;;;;;;3.10;1.97;;;0.90;99.90;;;;;;4993546;28;20721;-67
2021/01/03 05:54:15;;;;;;;4.27;1.93;;;0.90;99.90;;;;;;4993939;28;20200;-64
2021/01/03 05:56:43;;;;;;;3.07;2.20;;;0.80;99.90;;;;;;4994508;28;20777;-67
2021/01/03 05:59:15;;;;;;;2.20;1.90;;;0.80;99.90;;;;;;4993133;28;20192;-68
2021/01/03 06:01:42;;;;;;;2.57;1.90;;;0.80;99.90;;;;;;4993606;28;20256;-67
2021/01/03 06:04:12;;;;;;;2.83;1.80;;;0.90;99.90;;;;;;4984160;28;20198;-67
2021/01/03 06:06:58;;;;;;;2.27;1.37;;;0.90;99.90;;;;;;4973245;28;20602;-67
2021/01/03 06:09:34;;;;;;;3.63;1.60;;;0.80;99.90;;;;;;4978778;28;20210;-69
2021/01/03 06:12:04;;;;;;;2.27;1.60;;;0.80;99.90;;;;;;4992867;28;20280;-67
2021/01/03 06:14:31;;;;;;;1.90;1.57;;;0.80;99.90;;;;;;4992229;28;20243;-68
2021/01/03 06:17:06;;;;;;;2.13;1.37;;;0.70;99.90;;;;;;4991964;28;20669;-66
2021/01/03 06:19:42;;;;;;;2.03;1.50;;;0.70;99.90;;;;;;4992504;28;20204;-66
2021/01/03 06:22:19;;;;;;;1.73;1.60;;;0.70;99.90;;;;;;4992173;28;20629;-68
2021/01/03 06:24:48;;;;;;;2.53;1.90;;;0.60;99.90;;;;;;4973219;28;20377;-67
2021/01/03 06:27:30;;;;;;;2.37;1.73;;;0.70;99.90;;;;;;4972974;28;20260;-67
2021/01/03 06:30:03;;;;;;;4.83;1.93;;;0.60;99.90;;;;;;4990598;28;20186;-67
2021/01/03 06:33:06;;;;;;;3.77;1.43;;;0.60;99.90;;;;;;4977879;28;20212;-67
2021/01/03 06:35:41;;;;;;;3.13;1.87;;;0.60;99.90;;;;;;4973334;28;20228;-68
2021/01/03 06:38:14;;;;;;;1.90;1.50;;;0.50;99.90;;;;;;4990701;28;20185;-66
2021/01/03 06:40:46;;;;;;;2.13;1.63;;;0.50;99.90;;;;;;4991941;28;20217;-67
2021/01/03 06:43:28;;;;;;;1.87;1.67;;;0.50;99.90;;;;;;4992378;28;20811;-67
2021/01/03 06:46:45;;;;;;;3.27;1.97;;;0.50;99.90;;;;;;4990006;28;20332;-67
2021/01/03 06:49:54;;;;;;;2.17;1.70;;;0.50;99.90;;;;;;4991997;28;20248;-67
2021/01/03 06:52:52;;;;;;;3.93;1.83;;;0.50;99.90;;;;;;4918942;28;20403;-68
2021/01/03 06:55:47;;;;;;;2.10;1.50;;;0.50;99.90;;;;;;4992079;28;20319;-67
2021/01/03 06:58:58;;;;;;;3.37;2.07;;;0.50;99.90;;;;;;4991184;28;20231;-67
2021/01/03 07:01:28;;;;;;;1.40;1.20;;;0.60;99.90;;;;;;4931961;29;20638;-67
2021/01/03 07:03:57;;;;;;;2.17;1.80;;;0.60;99.90;;;;;;4932294;29;20243;-68
2021/01/03 07:06:33;;;;;;;2.33;1.43;;;0.60;99.90;;;;;;4971785;28;20213;-66
2021/01/03 07:09:06;;;;;;;2.90;2.10;;;0.60;99.90;;;;;;4998450;28;20273;-68
2021/01/03 07:11:45;;;;;;;1.70;1.60;;;0.60;99.90;;;;;;4994228;28;20241;-67
2021/01/03 07:14:32;;;;;;;2.23;1.80;;;0.50;99.90;;;;;;4979311;28;20218;-67
2021/01/03 07:17:00;;;;;;;2.80;1.87;;;0.50;99.90;;;;;;4980068;28;20233;-68
2021/01/03 07:19:41;;;;;;;2.77;2.00;;;0.50;99.90;;;;;;4979746;28;20251;-67
2021/01/03 07:22:13;;;;;;;2.77;2.00;;;0.50;99.90;;;;;;4996612;28;20247;-66
2021/01/03 07:25:07;;;;;;;2.80;1.80;;;0.60;99.90;;;;;;4996895;28;20221;-67
2021/01/03 07:27:38;;;;;;;4.33;2.40;;;0.60;99.90;;;;;;4998189;28;20273;-68
2021/01/03 07:30:32;;;;;;;2.83;2.00;;;0.60;99.90;;;;;;4998497;28;20239;-67
2021/01/03 07:33:15;;;;;;;3.17;2.10;;;0.60;99.90;;;;;;4997767;28;20224;-67
2021/01/03 07:35:43;;;;;;;2.57;1.93;;;0.50;99.90;;;;;;4978872;28;20601;-67
2021/01/03 07:38:20;;;;;;;2.50;2.00;;;0.50;99.90;;;;;;4978914;28;20190;-66
2021/01/03 07:40:51;;;;;;;3.50;2.50;;;0.50;99.90;;;;;;4979161;28;20340;-67
2021/01/03 07:43:17;;;;;;;2.90;2.23;;;0.50;99.90;;;;;;4989456;28;20636;-66
2021/01/03 07:45:46;;;;;;;2.93;2.10;;;0.50;99.90;;;;;;4994442;28;20313;-66
2021/01/03 07:48:38;;;;;;;2.57;2.33;;;0.50;99.90;;;;;;4979029;28;20302;-66
2021/01/03 07:51:08;;;;;;;2.90;2.30;;;0.60;99.90;;;;;;4982449;28;20281;-67
2021/01/03 07:53:37;;;;;;;5.20;2.40;;;0.60;99.90;;;;;;4998119;28;20217;-67
2021/01/03 07:56:19;;;;;;;5.40;2.30;;;0.50;99.90;;;;;;4997963;28;20306;-67
2021/01/03 07:58:50;;;;;;;4.97;2.53;;;0.60;99.90;;;;;;4998610;28;20221;-69
2021/01/03 08:01:18;;;;;;;2.90;2.17;;;0.60;99.90;;;;;;4993716;28;20277;-67
2021/01/03 08:03:44;;;;;;;3.00;2.70;;;0.50;99.90;;;;;;4983915;28;20225;-67
2021/01/03 08:06:12;;;;;;;2.67;2.20;;;0.60;99.90;;;;;;4997121;28;20565;-66
2021/01/03 08:08:39;;;;;;;3.23;1.83;;;0.60;99.90;;;;;;4998498;28;20647;-67
2021/01/03 08:11:16;;;;;;;3.90;2.30;;;0.50;99.90;;;;;;4998009;28;20684;-67
2021/01/03 08:13:46;;;;;;;3.57;2.40;;;0.50;99.90;;;;;;4993886;28;20182;-66
2021/01/03 08:16:20;;;;;;;4.30;2.43;;;0.50;99.90;;;;;;4987302;28;20232;-66
2021/01/03 08:18:58;;;;;;;4.07;2.50;;;0.50;99.90;;;;;;4987946;28;20562;-67
2021/01/03 08:21:25;;;;;;;3.43;2.60;;;0.50;99.90;;;;;;4977892;28;20320;-67
2021/01/03 08:24:01;;;;;;;3.10;2.53;;;0.50;99.90;;;;;;4993717;28;20232;-68
2021/01/03 08:26:28;;;;;;;3.03;2.23;;;0.50;99.90;;;;;;4991679;28;20193;-66
2021/01/03 08:28:59;;;;;;;3.93;2.70;;;0.50;99.90;;;;;;4994866;28;20276;-68
2021/01/03 08:31:28;;;;;;;4.30;2.80;;;0.60;99.90;;;;;;4994535;28;20273;-67
2021/01/03 08:33:57;;;;;;;2.80;2.40;;;0.60;99.90;;;;;;4994292;28;20201;-68
2021/01/03 08:36:27;;;;;;;3.93;2.37;;;0.60;99.90;;;;;;4987451;28;20697;-69
2021/01/03 08:39:05;;;;;;;5.50;2.67;;;0.50;99.90;;;;;;4979954;28;20353;-67
2021/01/03 08:41:35;;;;;;;3.43;2.47;;;0.50;99.90;;;;;;4977989;28;20529;-65
2021/01/03 08:44:04;;;;;;;2.70;1.80;;;0.50;99.90;;;;;;4993708;28;20594;-68
2021/01/03 08:46:34;;;;;;;3.17;2.60;;;0.50;99.90;;;;;;4994046;28;20205;-67
2021/01/03 08:49:03;;;;;;;3.47;2.50;;;0.50;99.90;;;;;;4994324;28;20236;-67
2021/01/03 08:51:30;;;;;;;3.93;2.63;;;0.50;99.90;;;;;;4993960;28;20690;-66
2021/01/03 08:54:01;;;;;;;5.00;2.90;;;0.50;99.90;;;;;;4994573;28;20229;-67
2021/01/03 08:56:31;;;;;;;3.70;2.77;;;0.50;99.90;;;;;;4994845;28;20692;-68
2021/01/03 08:58:58;;;;;;;3.97;2.50;;;0.60;99.90;;;;;;4994678;28;20259;-67
2021/01/03 09:01:29;;;;;;;4.57;2.97;;;0.60;99.90;;;;;;4994319;28;20228;-68
2021/01/03 09:04:03;;;;;;;4.53;3.13;;;0.60;99.90;;;;;;4993319;28;20270;-65
2021/01/03 09:06:31;;;;;;;4.07;3.30;;;0.50;99.90;;;;;;4989306;28;20178;-68
2021/01/03 09:09:07;;;;;;;4.03;2.77;;;0.60;99.90;;;;;;4975276;28;20616;-67
2021/01/03 09:11:37;;;;;;;4.23;2.87;;;0.70;99.90;;;;;;4975617;28;20221;-66
2021/01/03 09:14:13;;;;;;;3.37;2.60;;;0.60;99.90;;;;;;4975003;28;20198;-67
2021/01/03 09:16:52;;;;;;;4.73;3.03;;;0.60;99.90;;;;;;4975289;28;20381;-69
2021/01/03 09:19:25;;;;;;;3.90;2.93;;;0.60;99.90;;;;;;4985545;28;20272;-68
2021/01/03 09:21:54;;;;;;;5.07;2.70;;;0.60;99.90;;;;;;4994244;28;20248;-69
2021/01/03 09:24:28;;;;;;;3.57;2.70;;;0.60;99.90;;;;;;4994037;28;20198;-68
2021/01/03 09:26:56;;;;;;;5.37;2.93;;;0.60;99.90;;;;;;4993987;28;20242;-67
2021/01/03 09:29:27;;;;;;;3.93;2.90;;;0.60;99.90;;;;;;4993906;28;20229;-67
2021/01/03 09:32:02;;;;;;;3.00;2.27;;;0.60;99.90;;;;;;4993925;28;20269;-67
2021/01/03 09:34:47;;;;;;;3.80;2.57;;;0.60;99.90;;;;;;4994103;28;20524;-67
2021/01/03 09:37:24;;;;;;;3.17;2.50;;;0.60;99.90;;;;;;4993767;28;20194;-70
2021/01/03 09:40:10;;;;;;;3.67;2.47;;;0.60;99.90;;;;;;4990249;28;20236;-68
2021/01/03 09:42:40;;;;;;;3.07;2.23;;;0.70;99.90;;;;;;4977963;28;20226;-68
2021/01/03 09:45:37;;;;;;;2.50;2.03;;;0.60;99.90;;;;;;4981188;28;20233;-67
2021/01/03 09:48:05;;;;;;;4.43;2.53;;;0.60;99.90;;;;;;4990840;28;20363;-67
2021/01/03 09:50:45;;;;;;;4.30;2.73;;;0.60;99.90;;;;;;4993319;28;20194;-67
2021/01/03 09:53:24;;;;;;;5.00;2.77;;;0.70;99.90;;;;;;4991794;28;20192;-66
2021/01/03 09:55:57;;;;;;;3.57;2.20;;;0.60;99.90;;;;;;4992798;28;20694;-66
2021/01/03 09:58:34;;;;;;;3.20;1.90;;;0.70;99.90;;;;;;4993664;28;20292;-66
2021/01/03 10:01:01;;;;;;;3.37;2.20;;;0.70;99.90;;;;;;4990615;28;20188;-69
2021/01/03 10:03:39;;;;;;;3.43;2.57;;;0.70;99.90;;;;;;4986559;28;20217;-67
2021/01/03 10:06:16;;;;;;;2.57;2.03;;;0.60;99.90;;;;;;4985346;28;20265;-66
2021/01/03 10:08:43;;;;;;;3.23;2.20;;;0.60;99.90;;;;;;4993116;28;20304;-68
2021/01/03 10:11:10;;;;;;;4.97;2.47;;;0.60;99.90;;;;;;4994008;28;20236;-68
2021/01/03 10:13:37;;;;;;;4.57;1.60;;;0.60;99.90;;;;;;4990690;28;20193;-66
2021/01/03 10:16:19;;;;;;;3.80;2.57;;;0.60;99.90;;;;;;4993165;28;20209;-66
2021/01/03 10:18:46;;;;;;;2.30;1.80;;;0.60;99.90;;;;;;4993468;28;20630;-65
2021/01/03 10:21:21;;;;;;;2.67;2.00;;;0.60;99.90;;;;;;4993913;28;20217;-66
2021/01/03 10:23:56;;;;;;;3.37;2.30;;;0.60;99.90;;;;;;4993757;28;20197;-66
2021/01/03 10:26:26;;;;;;;2.97;2.00;;;0.70;99.90;;;;;;4993411;28;20299;-66
2021/01/03 10:28:52;;;;;;;2.50;1.90;;;0.60;99.90;;;;;;4993473;28;20237;-67
2021/01/03 10:31:19;;;;;;;2.37;1.90;;;0.70;99.90;;;;;;4992323;28;20190;-66
2021/01/03 10:33:49;;;;;;;2.83;2.07;;;0.70;99.90;;;;;;4992681;28;20205;-65
2021/01/03 10:36:17;;;;;;;3.50;2.30;;;0.70;99.90;;;;;;4988519;28;20580;-69
2021/01/03 10:38:44;;;;;;;2.93;2.27;;;0.70;99.90;;;;;;4993030;28;20244;-67
2021/01/03 10:41:10;;;;;;;2.43;1.83;;;0.70;99.90;;;;;;4990034;28;20269;-70
2021/01/03 10:43:37;;;;;;;2.83;2.30;;;0.70;99.90;;;;;;4992685;28;20604;-68
2021/01/03 10:46:03;;;;;;;2.50;1.90;;;0.70;99.90;;;;;;4992578;28;20248;-69
2021/01/03 10:48:30;;;;;;;3.20;2.37;;;0.80;99.90;;;;;;4992197;28;20648;-68
2021/01/03 10:50:57;;;;;;;1.97;1.67;;;0.70;99.90;;;;;;4993200;28;20193;-67
2021/01/03 10:53:24;;;;;;;3.23;2.17;;;0.70;99.90;;;;;;4973479;28;20253;-66
2021/01/03 10:55:51;;;;;;;3.13;2.10;;;0.70;99.90;;;;;;4972837;28;20222;-69
2021/01/03 10:58:17;;;;;;;2.10;1.90;;;0.80;99.90;;;;;;4976165;28;20618;-68
2021/01/03 11:00:43;;;;;;;1.90;1.50;;;0.80;99.90;;;;;;4992057;28;20221;-68
2021/01/03 11:03:10;;;;;;;1.87;1.57;;;0.80;99.90;;;;;;4992248;28;20247;-68
2021/01/03 11:05:36;;;;;;;3.07;1.90;;;0.70;99.90;;;;;;4991862;28;20218;-66
2021/01/03 11:08:04;;;;;;;10.40;4.50;;;0.80;99.90;;;;;;4991985;28;20694;-69
2021/01/03 11:10:31;;;;;;;2.40;2.20;;;0.90;99.90;;;;;;4991179;28;20197;-67
2021/01/03 11:12:57;;;;;;;4.87;2.47;;;0.80;99.90;;;;;;4989243;28;20218;-68
2021/01/03 11:15:24;;;;;;;2.97;2.17;;;0.80;99.90;;;;;;4976699;28;20675;-70
2021/01/03 11:17:50;;;;;;;3.27;1.90;;;0.80;99.90;;;;;;4973331;28;20280;-69
2021/01/03 11:20:17;;;;;;;4.00;2.43;;;0.80;99.90;;;;;;4972994;28;20250;-68
2021/01/03 11:22:43;;;;;;;2.97;2.20;;;0.80;99.90;;;;;;4984066;28;20233;-67
2021/01/03 11:25:12;;;;;;;4.27;2.70;;;0.90;99.90;;;;;;4972454;28;20596;-67
2021/01/03 11:27:38;;;;;;;3.50;2.30;;;0.80;99.90;;;;;;4975390;28;20237;-67
2021/01/03 11:30:07;;;;;;;2.93;2.20;;;0.70;99.90;;;;;;4991776;28;20667;-66
2021/01/03 11:32:34;;;;;;;3.50;2.50;;;0.60;99.90;;;;;;4991872;28;20233;-66
2021/01/03 11:35:00;;;;;;;3.80;2.50;;;0.60;99.90;;;;;;4992298;28;20237;-67
2021/01/03 11:37:29;;;;;;;4.30;2.63;;;0.60;99.90;;;;;;4984330;28;20274;-68
2021/01/03 11:39:55;;;;;;;3.63;2.43;;;0.50;99.90;;;;;;4988166;28;20217;-69
2021/01/03 11:42:31;;;;;;;2.83;2.17;;;0.50;99.90;;;;;;4989266;28;20197;-67
2021/01/03 11:44:59;;;;;;;3.23;2.50;;;0.50;99.90;;;;;;4973824;28;20190;-67
2021/01/03 11:47:26;;;;;;;2.87;1.87;;;0.50;99.90;;;;;;4992043;28;20259;-70
2021/01/03 11:49:53;;;;;;;3.83;2.50;;;0.50;99.90;;;;;;4976713;28;20208;-68
2021/01/03 11:52:19;;;;;;;3.07;2.10;;;0.60;99.90;;;;;;4990390;28;20273;-66
2021/01/03 11:54:46;;;;;;;2.33;1.70;;;0.50;99.90;;;;;;4992318;28;20194;-66
2021/01/03 11:57:12;;;;;;;4.57;2.53;;;0.50;99.90;;;;;;4995554;28;20660;-67
2021/01/03 11:59:39;;;;;;;4.20;2.03;;;0.60;99.90;;;;;;4988809;28;20245;-67
2021/01/03 12:02:08;;;;;;;7.10;2.50;;;0.50;99.90;;;;;;4989902;28;20232;-64
2021/01/03 12:04:34;;;;;;;1.83;1.33;;;0.50;99.90;;;;;;4995461;28;20271;-66
2021/01/03 12:07:03;;;;;;;1.80;1.10;;;0.40;99.90;;;;;;4995575;28;20549;-64
2021/01/03 12:09:30;;;;;;;1.93;1.40;;;0.40;99.90;;;;;;4995266;28;20648;-66
2021/01/03 12:11:58;;;;;;;1.13;0.97;;;0.50;99.90;;;;;;4995385;28;20198;-65
2021/01/03 12:14:25;;;;;;;2.33;1.40;;;0.50;99.90;;;;;;4995006;28;20229;-67
2021/01/03 12:16:56;;;;;;;1.77;1.20;;;0.50;99.90;;;;;;4995496;28;20240;-66
2021/01/03 12:19:23;;;;;;;1.60;1.50;;;0.50;99.90;;;;;;4995456;28;20221;-65
2021/01/03 12:21:49;;;;;;;1.80;1.27;;;0.50;99.90;;;;;;4994952;28;20208;-65
2021/01/03 12:24:16;;;;;;;1.57;1.10;;;0.50;99.90;;;;;;4995090;28;20284;-69
2021/01/03 12:26:43;;;;;;;1.20;1.10;;;0.50;99.90;;;;;;4995445;28;20264;-66
2021/01/03 12:29:11;;;;;;;2.07;1.50;;;0.50;99.90;;;;;;4994927;28;20209;-67
2021/01/03 12:31:41;;;;;;;1.60;1.13;;;0.60;99.90;;;;;;4995268;28;20275;-67
2021/01/03 12:34:10;;;;;;;1.10;0.90;;;0.50;99.90;;;;;;4994635;28;20280;-67
2021/01/03 12:36:37;;;;;;;0.67;0.67;;;0.40;99.90;;;;;;4995004;28;20202;-65
2021/01/03 12:39:05;;;;;;;1.00;0.80;;;0.40;99.90;;;;;;4994624;28;20309;-65
2021/01/03 12:41:32;;;;;;;8.37;1.77;;;0.40;99.90;;;;;;4994597;28;20236;-65
2021/01/03 12:43:58;;;;;;;0.70;0.70;;;0.40;99.90;;;;;;4994736;28;20202;-67
2021/01/03 12:46:27;;;;;;;0.63;0.63;;;0.30;99.90;;;;;;4994647;28;20236;-66
2021/01/03 12:48:53;;;;;;;1.07;0.77;;;0.30;99.90;;;;;;4994300;28;20304;-66
2021/01/03 12:51:20;;;;;;;2.07;0.90;;;0.30;99.90;;;;;;4994289;28;20267;-66
2021/01/03 12:53:47;;;;;;;1.03;0.70;;;0.30;99.90;;;;;;4993645;28;20244;-67
2021/01/03 12:56:14;;;;;;;1.30;1.00;;;0.20;99.90;;;;;;4992262;28;20229;-67
2021/01/03 12:58:40;;;;;;;0.83;0.60;;;0.20;99.90;;;;;;4993364;28;20229;-67
2021/01/03 13:01:07;;;;;;;1.20;0.60;;;0.20;99.90;;;;;;4987683;28;20201;-66
2021/01/03 13:03:34;;;;;;;0.70;0.70;;;0.10;99.90;;;;;;4993909;28;20390;-69
2021/01/03 13:06:03;;;;;;;0.90;0.80;;;0.10;99.90;;;;;;4983836;28;20194;-67
2021/01/03 13:08:30;;;;;;;1.87;0.70;;;0.20;99.90;;;;;;4994158;28;20679;-66
2021/01/03 13:10:57;;;;;;;1.70;1.43;;;0.10;99.90;;;;;;4979383;28;20639;-66
2021/01/03 13:13:23;;;;;;;1.50;1.20;;;0.10;99.90;;;;;;4993270;28;20240;-66
2021/01/03 13:15:50;;;;;;;1.67;1.03;;;0.00;99.90;;;;;;4993284;28;20242;-67